Time;durP1;ratioP1;P1;durP2;ratioP2;P2;SDS_P1;SDS_P2;PMS_P1;PMS_P2;Temp;Humidity;BMP_temperature;BMP_pressure;BME280_temperature;BME280_humidity;BME280_pressure;Samples;Min_cycle;Max_cycle;Signal;HPM_P1;HPM_P2
2023/12/30 00:00:23;;;;;;;15.60;11.20;;;;;;;6.71;100.00;100201.58;107997;1257;72099;-77
2023/12/30 00:02:51;;;;;;;14.80;11.20;;;;;;;6.70;100.00;100207.83;107830;1257;60890;-77
2023/12/30 00:05:18;;;;;;;17.70;12.10;;;;;;;6.68;100.00;100205.60;107926;1260;60319;-80
2023/12/30 00:07:46;;;;;;;16.40;11.80;;;;;;;6.65;100.00;100210.12;107866;1256;73897;-78
2023/12/30 00:10:14;;;;;;;17.60;11.80;;;;;;;6.63;100.00;100212.70;107949;1256;72820;-78
2023/12/30 00:12:41;;;;;;;17.50;12.70;;;;;;;6.62;100.00;100210.44;107783;1256;71437;-78
2023/12/30 00:15:09;;;;;;;16.40;11.60;;;;;;;6.61;100.00;100206.70;107903;1256;60924;-78
2023/12/30 00:17:37;;;;;;;17.80;12.10;;;;;;;6.59;100.00;100205.56;107892;1256;61042;-77
2023/12/30 00:20:06;;;;;;;16.00;11.60;;;;;;;6.60;100.00;100207.59;107936;1256;72229;-78
2023/12/30 00:22:33;;;;;;;16.50;11.60;;;;;;;6.56;100.00;100208.75;107920;1257;72573;-77
2023/12/30 00:25:01;;;;;;;16.40;12.40;;;;;;;6.53;100.00;100211.72;108005;1255;71405;-77
2023/12/30 00:27:29;;;;;;;16.30;11.10;;;;;;;6.54;100.00;100213.23;107948;1256;60265;-77
2023/12/30 00:29:56;;;;;;;16.30;11.40;;;;;;;6.55;100.00;100212.14;107897;1256;60125;-78
2023/12/30 00:32:24;;;;;;;18.20;11.40;;;;;;;6.54;100.00;100210.41;107926;1256;73800;-80
2023/12/30 00:34:52;;;;;;;15.80;11.50;;;;;;;6.53;100.00;100211.34;107870;1257;72687;-78
2023/12/30 00:37:20;;;;;;;16.60;11.10;;;;;;;6.51;100.00;100206.42;108040;1257;71395;-78
2023/12/30 00:39:50;;;;;;;17.80;11.90;;;;;;;6.51;100.00;100204.35;107947;1255;60906;-76
2023/12/30 00:42:19;;;;;;;15.80;11.30;;;;;;;6.50;100.00;100207.67;108081;1257;60110;-77
2023/12/30 00:44:46;;;;;;;15.20;11.10;;;;;;;6.48;100.00;100205.27;108067;1256;72686;-77
2023/12/30 00:47:14;;;;;;;16.00;11.40;;;;;;;6.46;100.00;100203.64;108005;1256;71968;-78
2023/12/30 00:49:42;;;;;;;14.20;11.20;;;;;;;6.44;100.00;100205.56;107931;1255;70500;-79
2023/12/30 00:52:10;;;;;;;16.90;11.20;;;;;;;6.41;100.00;100210.00;107940;1256;60426;-77
2023/12/30 00:54:38;;;;;;;15.70;11.30;;;;;;;6.39;100.00;100209.57;107902;1257;59486;-77
2023/12/30 00:57:17;;;;;;;16.20;11.50;;;;;;;6.38;100.00;100214.93;108034;1256;73839;-78
2023/12/30 00:59:44;;;;;;;15.40;11.20;;;;;;;6.34;100.00;100215.78;107905;1256;72698;-79
2023/12/30 01:02:12;;;;;;;14.80;11.60;;;;;;;6.30;100.00;100220.75;108046;1256;72738;-78
2023/12/30 01:04:39;;;;;;;17.00;11.40;;;;;;;6.30;100.00;100219.26;108045;1256;60913;-77
2023/12/30 01:07:07;;;;;;;14.60;11.00;;;;;;;6.27;100.00;100222.06;108007;1257;60395;-77
2023/12/30 01:09:35;;;;;;;17.50;11.90;;;;;;;6.24;100.00;100223.83;108118;1257;72594;-77
2023/12/30 01:12:03;;;;;;;16.30;12.20;;;;;;;6.21;100.00;100219.67;108068;1256;71055;-77
2023/12/30 01:14:30;;;;;;;14.60;10.70;;;;;;;6.20;100.00;100218.70;108061;1257;72668;-77
2023/12/30 01:16:58;;;;;;;16.10;11.30;;;;;;;6.18;100.00;100219.98;109270;1255;59406;-78
2023/12/30 01:19:25;;;;;;;15.60;11.20;;;;;;;6.17;100.00;100217.48;109079;1259;58956;-78
2023/12/30 01:21:53;;;;;;;14.00;10.60;;;;;;;6.17;100.00;100215.83;109175;1256;74007;-78
2023/12/30 01:24:21;;;;;;;13.90;10.50;;;;;;;6.15;100.00;100215.64;109143;1256;73052;-77
2023/12/30 01:26:49;;;;;;;15.40;11.30;;;;;;;6.14;100.00;100218.41;109122;1256;71388;-78
2023/12/30 01:29:16;;;;;;;15.90;11.40;;;;;;;6.11;100.00;100217.52;109015;1257;59713;-78
2023/12/30 01:31:44;;;;;;;14.80;10.90;;;;;;;6.09;100.00;100211.70;109167;1256;59881;-77
2023/12/30 01:34:12;;;;;;;14.70;10.70;;;;;;;6.07;100.00;100210.91;109163;1256;73851;-78
2023/12/30 01:36:39;;;;;;;15.00;10.80;;;;;;;6.07;100.00;100212.09;109253;1256;71442;-78
2023/12/30 01:39:08;;;;;;;15.40;11.20;;;;;;;6.07;100.00;100210.59;109163;1256;71442;-78
2023/12/30 01:41:36;;;;;;;14.90;9.80;;;;;;;6.04;100.00;100213.14;109053;1256;61776;-78
2023/12/30 01:44:05;;;;;;;15.60;11.10;;;;;;;6.01;100.00;100210.84;109120;1255;60106;-78
2023/12/30 01:46:33;;;;;;;14.20;10.50;;;;;;;5.98;100.00;100211.15;109062;1256;74020;-79
2023/12/30 01:49:01;;;;;;;14.40;11.40;;;;;;;5.95;100.00;100213.70;109113;1256;73077;-78
2023/12/30 01:51:29;;;;;;;15.10;10.70;;;;;;;5.92;100.00;100217.66;109146;1256;72720;-78
2023/12/30 01:53:56;;;;;;;14.70;10.90;;;;;;;5.90;100.00;100213.19;109100;1256;61871;-78
2023/12/30 01:56:24;;;;;;;15.60;11.10;;;;;;;5.86;100.00;100215.55;109191;1256;60113;-78
2023/12/30 02:00:30;;;;;;;14.40;10.60;;;;;;;5.82;100.00;100219.42;105488;1286;603709;-75
2023/12/30 02:02:57;;;;;;;14.30;10.50;;;;;;;5.74;100.00;100214.88;107298;1267;59253;-75
2023/12/30 02:05:24;;;;;;;15.30;11.10;;;;;;;5.68;100.00;100215.17;107407;1265;60248;-75
2023/12/30 02:07:51;;;;;;;13.60;10.90;;;;;;;5.61;100.00;100212.12;107360;1267;72217;-76
2023/12/30 02:10:19;;;;;;;16.20;11.10;;;;;;;5.55;100.00;100210.19;107362;1267;72679;-75
2023/12/30 02:12:46;;;;;;;17.20;11.40;;;;;;;5.49;100.00;100208.74;107268;1266;222078;-76
2023/12/30 02:15:14;;;;;;;15.40;11.80;;;;;;;5.45;100.00;100211.30;107533;1264;61620;-79
2023/12/30 02:17:41;;;;;;;18.20;12.80;;;;;;;5.41;100.00;100210.89;107524;1264;60071;-76
2023/12/30 02:20:08;;;;;;;20.00;13.80;;;;;;;5.37;100.00;100214.46;107647;1263;71936;-76
2023/12/30 02:22:48;;;;;;;21.40;14.00;;;;;;;5.33;100.00;100213.31;108163;1258;71589;-75
2023/12/30 02:25:16;;;;;;;18.30;12.70;;;;;;;5.29;100.00;100219.25;108024;1256;71634;-75
2023/12/30 02:27:43;;;;;;;18.10;12.40;;;;;;;5.25;100.00;100217.80;107976;1257;60179;-76
2023/12/30 02:30:11;;;;;;;15.20;11.40;;;;;;;5.23;100.00;100218.70;108065;1257;60343;-75
2023/12/30 02:32:38;;;;;;;18.60;12.40;;;;;;;5.22;100.00;100221.73;108054;1257;71757;-74
2023/12/30 02:35:05;;;;;;;16.80;11.60;;;;;;;5.20;100.00;100217.04;108079;1257;71432;-76
2023/12/30 02:37:32;;;;;;;15.20;11.60;;;;;;;5.18;100.00;100212.23;107992;1258;72545;-75
2023/12/30 02:39:59;;;;;;;15.70;11.70;;;;;;;5.16;100.00;100217.11;107934;1257;60842;-78
2023/12/30 02:42:26;;;;;;;18.60;12.60;;;;;;;5.13;100.00;100219.69;107819;1257;60168;-76
2023/12/30 02:44:55;;;;;;;17.10;12.10;;;;;;;5.11;100.00;100218.00;107817;1257;73049;-77
2023/12/30 02:47:23;;;;;;;15.80;11.80;;;;;;;5.10;100.00;100221.48;107960;1257;71785;-77
2023/12/30 02:49:50;;;;;;;15.20;10.70;;;;;;;5.09;100.00;100219.32;108034;1257;71573;-76
2023/12/30 02:52:17;;;;;;;17.70;11.70;;;;;;;5.09;100.00;100223.81;107974;1256;61213;-76
2023/12/30 02:54:45;;;;;;;15.50;10.40;;;;;;;5.08;100.00;100225.70;108046;1257;60223;-77
2023/12/30 02:57:14;;;;;;;16.30;11.30;;;;;;;5.06;100.00;100222.98;108052;1257;73097;-79
2023/12/30 02:59:41;;;;;;;14.80;11.60;;;;;;;5.04;100.00;100220.42;108070;1257;71219;-76
2023/12/30 03:02:08;;;;;;;16.00;11.90;;;;;;;5.04;100.00;100220.48;107963;1260;72697;-78
2023/12/30 03:04:35;;;;;;;17.40;12.00;;;;;;;5.02;100.00;100217.20;107907;1257;61336;-77
2023/12/30 03:07:04;;;;;;;14.60;10.10;;;;;;;5.02;100.00;100219.78;108037;1257;60093;-76
2023/12/30 03:09:31;;;;;;;16.10;11.00;;;;;;;4.99;100.00;100218.88;107990;1256;72961;-75
2023/12/30 03:11:58;;;;;;;13.90;9.90;;;;;;;4.97;100.00;100218.23;107855;1257;71527;-76
2023/12/30 03:14:25;;;;;;;15.50;10.30;;;;;;;4.95;100.00;100216.87;107878;1257;72676;-76
2023/12/30 03:16:52;;;;;;;14.50;11.10;;;;;;;4.94;100.00;100217.59;108088;1257;59590;-77
2023/12/30 03:19:20;;;;;;;16.10;11.20;;;;;;;4.92;100.00;100216.86;107863;1257;60094;-77
2023/12/30 03:21:48;;;;;;;14.70;10.40;;;;;;;4.91;100.00;100208.21;107902;1257;71658;-77
2023/12/30 03:24:15;;;;;;;14.80;11.10;;;;;;;4.89;100.00;100207.79;107901;1258;72547;-77
2023/12/30 03:26:43;;;;;;;13.80;10.50;;;;;;;4.88;100.00;100204.23;107847;1263;71520;-76
2023/12/30 03:29:12;;;;;;;19.10;12.90;;;;;;;4.87;100.00;100205.31;107863;1257;61298;-76
2023/12/30 03:31:46;;;;;;;17.50;11.50;;;;;;;4.87;100.00;100210.77;107773;1262;60431;-76
2023/12/30 03:34:14;;;;;;;17.90;12.10;;;;;;;4.89;100.00;100210.00;107822;1257;73195;-76
2023/12/30 03:36:41;;;;;;;15.00;11.70;;;;;;;4.90;100.00;100214.46;107746;1257;72525;-76
2023/12/30 03:39:08;;;;;;;17.20;11.80;;;;;;;4.89;100.00;100214.88;107911;1260;72435;-76
2023/12/30 03:41:35;;;;;;;16.30;11.40;;;;;;;4.88;100.00;100218.89;108159;1253;61014;-75
2023/12/30 03:44:05;;;;;;;14.00;10.70;;;;;;;4.88;100.00;100218.29;108322;1254;59567;-76
2023/12/30 03:46:32;;;;;;;15.10;11.20;;;;;;;4.88;100.00;100215.96;108283;1256;72968;-76
2023/12/30 03:49:00;;;;;;;13.80;11.00;;;;;;;4.88;100.00;100213.76;108269;1254;71592;-76
2023/12/30 03:51:28;;;;;;;13.90;10.60;;;;;;;4.90;100.00;100217.27;108242;1254;72479;-76
2023/12/30 03:53:54;;;;;;;14.90;11.50;;;;;;;4.90;100.00;100219.67;108297;1255;59525;-78
2023/12/30 03:56:23;;;;;;;14.70;11.30;;;;;;;4.91;100.00;100217.15;108235;1254;59522;-75
2023/12/30 03:58:52;;;;;;;15.30;11.90;;;;;;;4.91;100.00;100221.55;108308;1254;71753;-77
2023/12/30 04:01:19;;;;;;;16.50;11.80;;;;;;;4.90;100.00;100223.23;108337;1255;72685;-77
2023/12/30 04:03:47;;;;;;;16.10;11.00;;;;;;;4.89;100.00;100221.23;108286;1254;70095;-77
2023/12/30 04:06:20;;;;;;;15.00;11.90;;;;;;;4.88;100.00;100220.36;108339;1254;60904;-76
2023/12/30 04:08:47;;;;;;;15.30;11.20;;;;;;;4.86;100.00;100216.60;108319;1254;60345;-77
2023/12/30 04:11:13;;;;;;;16.50;11.50;;;;;;;4.84;100.00;100219.20;108380;1255;73092;-74
2023/12/30 04:13:41;;;;;;;14.60;11.30;;;;;;;4.79;100.00;100217.59;108251;1256;71419;-76
2023/12/30 04:16:08;;;;;;;15.80;11.40;;;;;;;4.73;100.00;100220.35;108350;1254;73035;-77
2023/12/30 04:18:35;;;;;;;14.00;10.90;;;;;;;4.67;100.00;100218.06;108307;1254;59656;-75
2023/12/30 04:21:01;;;;;;;15.50;11.50;;;;;;;4.59;100.00;100219.69;108427;1254;59634;-75
2023/12/30 04:23:28;;;;;;;14.20;11.40;;;;;;;4.49;100.00;100224.23;108293;1252;73109;-75
2023/12/30 04:25:55;;;;;;;15.80;11.10;;;;;;;4.38;100.00;100219.41;108335;1254;71462;-74
2023/12/30 04:28:22;;;;;;;12.50;9.60;;;;;;;4.30;100.00;100220.94;108353;1256;71525;-75
2023/12/30 04:30:49;;;;;;;15.00;11.00;;;;;;;4.23;100.00;100223.07;108351;1255;59671;-76
2023/12/30 04:33:17;;;;;;;14.00;10.70;;;;;;;4.17;100.00;100224.04;108300;1254;59548;-75
2023/12/30 04:35:44;;;;;;;15.60;10.90;;;;;;;4.14;100.00;100225.83;108388;1254;71625;-77
2023/12/30 04:38:15;;;;;;;16.00;11.10;;;;;;;4.12;100.00;100224.19;108443;1255;72223;-75
2023/12/30 04:40:41;;;;;;;15.90;11.10;;;;;;;4.10;100.00;100226.25;108353;1252;71095;-75
2023/12/30 04:43:09;;;;;;;15.80;11.20;;;;;;;4.07;100.00;100226.76;108357;1254;59583;-75
2023/12/30 04:45:36;;;;;;;14.90;10.70;;;;;;;4.04;100.00;100226.72;108355;1253;60129;-75
2023/12/30 04:48:04;;;;;;;17.30;11.10;;;;;;;4.00;100.00;100237.57;108339;1252;71562;-75
2023/12/30 04:50:32;;;;;;;14.80;10.90;;;;;;;3.97;100.00;100242.66;108349;1254;72701;-78
2023/12/30 04:52:59;;;;;;;15.10;11.10;;;;;;;3.93;100.00;100244.40;108291;1256;70344;-75
2023/12/30 04:55:26;;;;;;;16.70;10.80;;;;;;;3.92;100.00;100244.83;108292;1251;59643;-75
2023/12/30 04:57:54;;;;;;;14.30;10.80;;;;;;;3.91;100.00;100245.55;108426;1252;60228;-77
2023/12/30 05:00:21;;;;;;;15.10;10.90;;;;;;;3.91;100.00;100246.23;108517;1256;73075;-76
2023/12/30 05:02:50;;;;;;;15.60;10.60;;;;;;;3.87;100.00;100243.10;108464;1251;70644;-77
2023/12/30 05:05:21;;;;;;;15.20;11.00;;;;;;;3.83;100.00;100242.04;108490;1255;72416;-77
2023/12/30 05:07:48;;;;;;;14.40;10.40;;;;;;;3.78;100.00;100233.84;108475;1251;59730;-76
2023/12/30 05:10:15;;;;;;;13.60;10.00;;;;;;;3.70;100.00;100229.41;108475;1251;59445;-77
2023/12/30 05:12:42;;;;;;;16.50;10.90;;;;;;;3.63;100.00;100230.18;108482;1251;72927;-75
2023/12/30 05:15:13;;;;;;;15.50;10.40;;;;;;;3.56;100.00;100231.52;108386;1251;72764;-76
2023/12/30 05:17:40;;;;;;;15.10;10.20;;;;;;;3.49;100.00;100232.11;108381;1255;72482;-76
2023/12/30 05:20:08;;;;;;;15.50;11.60;;;;;;;3.42;100.00;100222.87;108360;1254;61093;-76
2023/12/30 05:22:35;;;;;;;13.80;10.40;;;;;;;3.38;100.00;100222.14;108391;1254;59511;-76
2023/12/30 05:25:02;;;;;;;15.10;11.40;;;;;;;3.33;100.00;100221.13;108373;1251;72737;-75
2023/12/30 05:27:29;;;;;;;16.30;11.90;;;;;;;3.28;100.00;100220.44;108336;1251;72681;-75
2023/12/30 05:29:56;;;;;;;15.30;10.60;;;;;;;3.25;100.00;100220.83;108442;1251;71404;-76
2023/12/30 05:32:22;;;;;;;15.20;11.00;;;;;;;3.24;100.00;100222.02;108358;1251;61198;-77
2023/12/30 05:34:49;;;;;;;16.30;11.30;;;;;;;3.26;100.00;100226.76;108453;1251;60166;-77
2023/12/30 05:37:17;;;;;;;18.40;11.90;;;;;;;3.30;100.00;100227.89;108416;1251;73045;-77
2023/12/30 05:39:44;;;;;;;14.30;9.60;;;;;;;3.36;100.00;100229.27;108433;1251;71186;-75
2023/12/30 05:42:11;;;;;;;15.40;11.40;;;;;;;3.42;100.00;100229.63;108333;1251;70467;-76
2023/12/30 05:44:39;;;;;;;16.30;12.20;;;;;;;3.48;100.00;100230.45;108426;1251;59680;-76
2023/12/30 05:47:08;;;;;;;16.00;11.60;;;;;;;3.55;100.00;100229.98;108298;1251;60340;-76
2023/12/30 05:49:40;;;;;;;15.70;10.50;;;;;;;3.62;100.00;100236.57;108359;1251;73074;-76
2023/12/30 05:52:08;;;;;;;16.70;11.20;;;;;;;3.68;100.00;100236.55;108400;1251;71208;-76
2023/12/30 05:54:36;;;;;;;15.30;10.90;;;;;;;3.74;100.00;100240.63;108376;1251;72416;-76
2023/12/30 05:57:03;;;;;;;15.90;11.20;;;;;;;3.81;100.00;100247.96;108351;1251;60672;-76
2023/12/30 05:59:30;;;;;;;15.70;11.20;;;;;;;3.88;100.00;100242.19;108400;1251;60273;-76
2023/12/30 06:01:58;;;;;;;14.60;11.00;;;;;;;3.93;100.00;100242.17;108427;1251;71751;-76
2023/12/30 06:04:26;;;;;;;15.00;11.00;;;;;;;3.98;100.00;100236.66;108391;1251;72398;-76
2023/12/30 06:06:53;;;;;;;18.20;12.10;;;;;;;4.04;100.00;100240.05;108388;1251;72544;-76
2023/12/30 06:09:20;;;;;;;16.10;11.40;;;;;;;4.09;100.00;100238.16;108393;1257;60437;-76
2023/12/30 06:11:50;;;;;;;16.10;11.40;;;;;;;4.15;100.00;100239.89;108414;1255;60328;-76
2023/12/30 06:14:17;;;;;;;16.40;11.30;;;;;;;4.24;100.00;100238.27;108361;1251;72432;-76
2023/12/30 06:16:44;;;;;;;16.30;11.80;;;;;;;4.30;100.00;100245.48;108381;1251;72807;-77
2023/12/30 06:19:13;;;;;;;16.00;11.50;;;;;;;4.35;100.00;100252.11;108363;1251;71447;-77
2023/12/30 06:21:40;;;;;;;16.80;11.00;;;;;;;4.40;100.00;100250.88;108403;1251;60309;-77
2023/12/30 06:24:07;;;;;;;18.30;12.10;;;;;;;4.45;100.00;100256.66;108312;1253;60395;-77
2023/12/30 06:26:38;;;;;;;17.90;11.80;;;;;;;4.52;100.00;100260.80;108287;1254;72446;-77
2023/12/30 06:29:07;;;;;;;15.50;11.80;;;;;;;4.59;100.00;100260.09;108410;1251;71404;-77
2023/12/30 06:31:40;;;;;;;15.10;11.80;;;;;;;4.64;100.00;100254.66;108428;1251;70700;-77
2023/12/30 06:34:09;;;;;;;18.40;11.80;;;;;;;4.68;100.00;100251.23;108402;1251;60394;-76
2023/12/30 06:36:37;;;;;;;15.60;11.60;;;;;;;4.71;100.00;100253.02;108366;1255;60332;-77
2023/12/30 06:39:06;;;;;;;16.10;11.90;;;;;;;4.76;100.00;100248.63;108373;1251;72434;-77
2023/12/30 06:41:33;;;;;;;17.00;11.30;;;;;;;4.78;100.00;100246.84;108440;1251;72695;-77
2023/12/30 06:44:04;;;;;;;16.90;11.60;;;;;;;4.82;100.00;100250.16;108451;1255;72719;-77
2023/12/30 06:46:33;;;;;;;14.30;10.80;;;;;;;4.86;100.00;100253.45;108361;1251;61055;-76
2023/12/30 06:49:01;;;;;;;16.30;11.50;;;;;;;4.91;100.00;100253.61;108351;1251;60396;-76
2023/12/30 06:51:28;;;;;;;16.90;11.20;;;;;;;4.96;100.00;100251.98;108400;1256;72417;-76
2023/12/30 06:53:58;;;;;;;14.20;10.40;;;;;;;5.02;100.00;100252.55;108473;1251;71307;-75
2023/12/30 06:56:33;;;;;;;14.80;10.70;;;;;;;5.09;100.00;100254.64;108455;1251;72695;-76
2023/12/30 06:59:02;;;;;;;13.70;10.30;;;;;;;5.18;100.00;100255.60;108435;1251;60587;-76
2023/12/30 07:01:29;;;;;;;15.30;11.30;;;;;;;5.27;100.00;100252.94;108403;1251;61003;-77
2023/12/30 07:03:56;;;;;;;12.50;9.90;;;;;;;5.35;100.00;100257.36;108416;1254;73888;-77
2023/12/30 07:06:23;;;;;;;14.60;11.50;;;;;;;5.44;100.00;100251.10;108413;1251;71330;-76
2023/12/30 07:08:51;;;;;;;14.80;10.70;;;;;;;5.49;100.00;100252.02;108335;1256;71652;-76
2023/12/30 07:11:18;;;;;;;16.40;11.10;;;;;;;5.55;100.00;100250.20;108335;1251;61003;-77
2023/12/30 07:13:46;;;;;;;14.20;10.20;;;;;;;5.61;100.00;100249.73;108387;1251;60348;-77
2023/12/30 07:16:15;;;;;;;15.40;11.10;;;;;;;5.67;100.00;100248.70;108343;1251;73690;-77
2023/12/30 07:18:43;;;;;;;14.20;10.20;;;;;;;5.71;100.00;100246.95;108370;1251;71906;-77
2023/12/30 07:21:10;;;;;;;13.90;10.10;;;;;;;5.75;100.00;100253.71;108416;1251;72553;-76
2023/12/30 07:23:41;;;;;;;15.20;10.90;;;;;;;5.81;100.00;100260.84;108427;1251;62336;-77
2023/12/30 07:26:08;;;;;;;14.30;10.40;;;;;;;5.84;100.00;100260.80;108391;1251;60312;-77
2023/12/30 07:28:35;;;;;;;13.50;10.50;;;;;;;5.90;100.00;100261.44;108344;1251;73912;-76
2023/12/30 07:31:03;;;;;;;15.20;11.40;;;;;;;5.95;100.00;100262.80;108579;1251;74248;-78
2023/12/30 07:33:34;;;;;;;16.30;11.60;;;;;;;5.99;100.00;100256.63;108514;1251;71283;-77
2023/12/30 07:36:06;;;;;;;14.00;10.50;;;;;;;6.05;100.00;100255.21;108824;1253;60411;-77
2023/12/30 07:38:34;;;;;;;16.70;10.40;;;;;;;6.13;100.00;100252.20;108466;1254;59055;-77
2023/12/30 07:41:00;;;;;;;13.80;9.60;;;;;;;6.21;100.00;100254.69;108468;1251;71457;-76
2023/12/30 07:43:28;;;;;;;14.40;10.80;;;;;;;6.29;100.00;100252.04;108446;1251;71414;-77
2023/12/30 07:45:55;;;;;;;13.20;9.50;;;;;;;6.38;100.00;100244.29;108395;1251;71202;-77
2023/12/30 07:48:22;;;;;;;14.50;9.90;;;;;;;6.50;100.00;100248.22;108377;1251;61779;-76
2023/12/30 07:50:50;;;;;;;13.20;10.20;;;;;;;6.62;100.00;100250.08;108401;1256;60450;-77
2023/12/30 07:53:17;;;;;;;14.40;10.30;;;;;;;6.75;100.00;100247.66;108415;1251;73740;-77
2023/12/30 07:55:44;;;;;;;14.50;9.80;;;;;;;6.88;100.00;100249.84;108440;1251;71329;-77
2023/12/30 07:58:13;;;;;;;13.90;10.70;;;;;;;6.99;100.00;100246.52;108445;1251;72439;-77
2023/12/30 08:00:42;;;;;;;13.10;10.10;;;;;;;7.09;100.00;100248.02;108407;1254;62098;-77
2023/12/30 08:03:11;;;;;;;11.80;9.20;;;;;;;7.20;100.00;100252.77;108421;1254;60437;-76
2023/12/30 08:05:39;;;;;;;13.40;10.20;;;;;;;7.32;100.00;100245.13;108393;1251;73767;-77
2023/12/30 08:08:08;;;;;;;13.00;10.10;;;;;;;7.42;100.00;100245.56;108407;1251;72578;-76
2023/12/30 08:10:36;;;;;;;15.30;11.10;;;;;;;7.52;100.00;100244.73;108304;1254;71430;-77
2023/12/30 08:13:03;;;;;;;15.00;11.30;;;;;;;7.59;100.00;100238.84;108388;1254;61326;-75
2023/12/30 08:15:31;;;;;;;14.60;11.00;;;;;;;7.65;100.00;100239.61;108428;1251;60440;-77
2023/12/30 08:17:58;;;;;;;13.90;10.30;;;;;;;7.73;100.00;100240.84;108353;1251;72335;-77
2023/12/30 08:20:25;;;;;;;14.10;9.90;;;;;;;7.83;99.57;100239.95;108290;1254;72691;-77
2023/12/30 08:22:52;;;;;;;13.70;10.00;;;;;;;7.93;98.73;100241.27;108370;1251;71496;-76
2023/12/30 08:25:23;;;;;;;14.50;10.80;;;;;;;8.02;96.18;100233.84;108426;1251;62007;-77
2023/12/30 08:27:49;;;;;;;12.40;10.10;;;;;;;8.06;93.99;100223.80;108369;1251;59446;-74
2023/12/30 08:30:18;;;;;;;16.40;10.70;;;;;;;8.12;93.44;100220.10;108310;1251;73545;-76
2023/12/30 08:32:45;;;;;;;14.00;10.50;;;;;;;8.20;92.50;100218.91;108334;1251;70345;-76
2023/12/30 08:35:15;;;;;;;14.40;10.80;;;;;;;8.26;91.55;100213.48;108344;1251;72503;-80
2023/12/30 08:37:41;;;;;;;15.20;11.10;;;;;;;8.31;90.15;100215.92;108311;1253;61294;-76
2023/12/30 08:40:14;;;;;;;15.10;10.70;;;;;;;8.34;89.49;100213.42;108444;1251;60323;-76
2023/12/30 08:42:45;;;;;;;13.00;10.00;;;;;;;8.40;89.35;100205.73;108296;1257;74003;-78
2023/12/30 08:45:18;;;;;;;15.70;10.80;;;;;;;8.45;88.71;100203.45;108385;1251;72692;-78
2023/12/30 08:47:48;;;;;;;;;;;;;;;8.49;87.80;100201.09;108389;1251;72858;-78
2023/12/30 08:50:17;;;;;;;14.80;10.90;;;;;;;8.52;87.31;100202.42;108391;1251;60793;-78
2023/12/30 08:52:43;;;;;;;16.10;11.50;;;;;;;8.55;86.95;100198.64;108333;1251;60311;-78
2023/12/30 08:55:11;;;;;;;13.30;10.60;;;;;;;8.59;86.20;100200.60;108431;1251;77744;-77
2023/12/30 08:57:38;;;;;;;15.10;11.50;;;;;;;8.63;85.94;100194.24;108353;1251;71467;-79
2023/12/30 09:00:08;;;;;;;16.70;11.60;;;;;;;8.71;85.71;100194.89;108343;1251;72500;-77
2023/12/30 09:02:38;;;;;;;16.90;12.60;;;;;;;8.77;85.12;100192.06;108379;1251;60517;-77
2023/12/30 09:05:05;;;;;;;16.50;12.00;;;;;;;8.80;83.99;100187.41;108395;1251;60200;-78
2023/12/30 09:07:32;;;;;;;16.10;11.70;;;;;;;8.81;83.30;100187.74;108428;1251;74262;-78
2023/12/30 09:09:59;;;;;;;16.00;10.50;;;;;;;8.85;83.31;100179.63;108374;1251;72514;-76
2023/12/30 09:12:26;;;;;;;13.10;10.40;;;;;;;8.90;82.73;100175.24;108293;1254;72686;-77
2023/12/30 09:14:56;;;;;;;14.60;10.80;;;;;;;8.95;82.35;100171.55;108338;1253;60423;-77
2023/12/30 09:17:24;;;;;;;16.20;10.80;;;;;;;9.00;82.35;100172.02;108277;1254;61878;-77
2023/12/30 09:19:51;;;;;;;14.40;10.50;;;;;;;9.08;82.31;100170.95;108381;1251;73699;-76
2023/12/30 09:22:19;;;;;;;12.40;9.50;;;;;;;9.16;81.99;100163.59;108397;1251;72586;-78
2023/12/30 09:24:47;;;;;;;12.30;9.20;;;;;;;9.23;81.29;100154.99;108405;1251;72696;-77
2023/12/30 09:27:14;;;;;;;15.90;10.20;;;;;;;9.32;81.28;100150.57;108338;1251;63259;-76
2023/12/30 09:29:42;;;;;;;12.20;9.10;;;;;;;9.42;80.59;100149.40;108382;1251;59169;-77
2023/12/30 09:32:09;;;;;;;12.20;9.70;;;;;;;9.48;79.78;100149.91;108438;1251;72249;-77
2023/12/30 09:34:37;;;;;;;11.80;9.00;;;;;;;9.54;78.58;100148.29;108366;1254;73321;-76
2023/12/30 09:37:14;;;;;;;11.40;9.30;;;;;;;9.58;78.00;100143.92;108396;1251;71581;-76
2023/12/30 09:39:42;;;;;;;12.70;9.60;;;;;;;9.63;77.51;100149.45;108264;1256;61726;-77
2023/12/30 09:42:09;;;;;;;13.50;9.40;;;;;;;9.69;77.11;100145.37;108199;1252;60399;-77
2023/12/30 09:44:36;;;;;;;13.20;8.90;;;;;;;9.74;76.63;100139.14;108386;1251;73939;-76
2023/12/30 09:47:07;;;;;;;14.10;10.40;;;;;;;9.79;76.26;100135.27;108405;1251;72749;-77
2023/12/30 09:49:37;;;;;;;12.00;9.40;;;;;;;9.82;75.62;100131.76;108381;1251;72518;-77
2023/12/30 09:52:08;;;;;;;13.20;9.50;;;;;;;9.83;75.38;100129.52;108365;1251;60390;-76
2023/12/30 09:54:38;;;;;;;12.60;9.70;;;;;;;9.87;75.24;100126.38;108364;1253;60283;-77
2023/12/30 09:57:17;;;;;;;12.10;9.00;;;;;;;9.95;75.15;100125.02;108450;1251;73793;-78
2023/12/30 09:59:52;;;;;;;11.00;8.60;;;;;;;10.08;74.79;100121.58;108394;1251;73571;-78
2023/12/30 10:02:35;;;;;;;11.70;9.00;;;;;;;10.25;74.61;100119.80;108332;1251;72625;-78
2023/12/30 10:05:05;;;;;;;13.00;8.90;;;;;;;10.38;73.67;100120.69;108361;1251;60380;-77
2023/12/30 10:07:34;;;;;;;11.30;9.10;;;;;;;10.43;72.53;100108.84;108419;1253;60324;-77
2023/12/30 10:10:00;;;;;;;11.40;8.90;;;;;;;10.45;72.14;100109.85;108381;1256;73713;-78
2023/12/30 10:12:28;;;;;;;11.80;8.90;;;;;;;10.46;71.72;100108.25;108350;1251;72770;-77
2023/12/30 10:14:55;;;;;;;10.90;8.50;;;;;;;10.44;71.17;100109.63;108302;1251;72379;-77
2023/12/30 10:17:23;;;;;;;13.20;9.40;;;;;;;10.43;71.23;100110.23;108331;1253;60425;-77
2023/12/30 10:19:49;;;;;;;11.50;8.60;;;;;;;10.41;71.09;100110.33;108360;1251;60412;-77
2023/12/30 10:22:16;;;;;;;14.20;9.90;;;;;;;10.39;70.92;100111.49;108322;1251;72682;-77
2023/12/30 10:24:43;;;;;;;13.90;9.40;;;;;;;10.38;70.92;100116.25;108454;1251;71252;-76
2023/12/30 10:27:11;;;;;;;13.70;10.40;;;;;;;10.34;70.80;100116.41;108416;1251;70390;-76
2023/12/30 10:29:40;;;;;;;14.80;10.90;;;;;;;10.30;70.74;100120.95;108426;1251;61792;-76
2023/12/30 10:32:23;;;;;;;13.90;10.30;;;;;;;10.29;71.02;100121.64;108371;1256;60338;-76
2023/12/30 10:34:52;;;;;;;12.00;9.80;;;;;;;10.32;71.01;100122.02;108352;1251;72592;-77
2023/12/30 10:37:21;;;;;;;13.80;9.90;;;;;;;10.37;71.01;100115.55;108311;1252;72861;-76
2023/12/30 10:39:48;;;;;;;12.20;9.30;;;;;;;10.43;70.91;100112.24;108354;1251;72469;-76
2023/12/30 10:42:16;;;;;;;12.20;9.00;;;;;;;10.48;70.79;100104.67;108323;1256;61897;-79
2023/12/30 10:44:44;;;;;;;13.20;9.40;;;;;;;10.48;70.19;100103.23;108368;1252;60377;-78
2023/12/30 10:47:14;;;;;;;13.10;9.80;;;;;;;10.46;70.35;100100.67;108352;1254;73515;-77
2023/12/30 10:49:44;;;;;;;13.20;9.70;;;;;;;10.41;70.53;100097.41;108298;1255;71948;-76
2023/12/30 10:52:11;;;;;;;13.70;9.60;;;;;;;10.37;70.74;100086.98;108289;1251;71367;-76
2023/12/30 10:54:40;;;;;;;11.50;8.80;;;;;;;10.34;70.98;100087.90;108365;1251;60426;-76
2023/12/30 10:57:07;;;;;;;11.40;8.90;;;;;;;10.35;71.32;100082.56;108464;1251;60418;-74
2023/12/30 10:59:35;;;;;;;11.40;8.20;;;;;;;10.37;71.28;100085.83;108414;1251;72468;-76
2023/12/30 11:02:02;;;;;;;11.10;8.60;;;;;;;10.33;71.29;100088.38;108381;1252;72773;-78
2023/12/30 11:04:34;;;;;;;12.30;9.00;;;;;;;10.33;71.43;100086.73;108404;1251;72670;-76
2023/12/30 11:07:04;;;;;;;12.90;8.90;;;;;;;10.34;71.73;100089.18;108203;1254;60287;-77
2023/12/30 11:09:33;;;;;;;11.70;8.70;;;;;;;10.39;71.80;100088.27;108386;1252;60309;-76